Time;durP1;ratioP1;P1;durP2;ratioP2;P2;SDS_P1;SDS_P2;PMS_P1;PMS_P2;Temp;Humidity;BMP_temperature;BMP_pressure;BME280_temperature;BME280_humidity;BME280_pressure;Samples;Min_cycle;Max_cycle;Signal;HPM_P1;HPM_P2
2022/01/31 00:02:15;;;;;;;;;;;19.40;46.30;;;;;;5086495;27;42948;-79
2022/01/31 00:04:42;;;;;;;;;;;19.40;46.40;;;;;;5086124;27;43989;-76
2022/01/31 00:07:08;;;;;;;;;;;19.40;46.40;;;;;;5086258;27;42905;-78
2022/01/31 00:09:34;;;;;;;;;;;19.40;46.40;;;;;;5085630;27;43567;-79
2022/01/31 00:12:09;;;;;;;;;;;19.40;46.40;;;;;;5085879;27;43259;-79
2022/01/31 00:14:40;;;;;;;;;;;19.40;46.50;;;;;;5086091;27;43603;-79
2022/01/31 00:17:05;;;;;;;;;;;19.40;46.40;;;;;;5086472;27;42966;-78
2022/01/31 00:19:31;;;;;;;;;;;19.40;46.90;;;;;;5086138;27;42900;-78
2022/01/31 00:21:58;;;;;;;;;;;19.40;46.40;;;;;;5086149;27;42869;-78
2022/01/31 00:24:23;;;;;;;;;;;19.40;46.40;;;;;;5085533;27;42795;-79
2022/01/31 00:26:49;;;;;;;;;;;19.40;46.40;;;;;;5086162;28;42921;-79
2022/01/31 00:29:14;;;;;;;;;;;19.40;46.50;;;;;;5085623;28;42943;-78
2022/01/31 00:31:40;;;;;;;;;;;19.40;46.40;;;;;;5085900;27;42886;-77
2022/01/31 00:34:05;;;;;;;;;;;19.40;46.40;;;;;;5085828;28;43438;-76
2022/01/31 00:36:31;;;;;;;;;;;19.40;46.40;;;;;;5085978;27;42841;-76
2022/01/31 00:38:56;;;;;;;;;;;19.30;46.40;;;;;;5085296;28;43026;-77
2022/01/31 00:41:22;;;;;;;;;;;19.50;46.50;;;;;;5085738;28;42872;-78
2022/01/31 00:43:58;;;;;;;;;;;19.30;46.40;;;;;;5084798;27;42866;-76
2022/01/31 00:46:30;;;;;;;;;;;19.40;46.40;;;;;;5085116;28;43100;-75
2022/01/31 00:48:56;;;;;;;;;;;19.40;46.50;;;;;;5084393;28;44952;-79
2022/01/31 00:51:21;;;;;;;;;;;19.30;46.40;;;;;;5085678;27;43138;-78
2022/01/31 00:53:47;;;;;;;;;;;19.40;46.40;;;;;;5084838;27;43304;-75
2022/01/31 00:56:12;;;;;;;;;;;19.40;46.40;;;;;;5084001;28;43305;-79
2022/01/31 00:58:38;;;;;;;;;;;19.30;46.50;;;;;;5085342;28;44124;-79
2022/01/31 01:01:03;;;;;;;;;;;19.40;46.60;;;;;;5085458;27;43054;-78
2022/01/31 01:03:29;;;;;;;;;;;19.40;46.50;;;;;;5084896;27;42856;-78
2022/01/31 01:05:54;;;;;;;;;;;19.30;46.50;;;;;;5085396;27;43264;-78
2022/01/31 01:08:20;;;;;;;;;;;19.30;46.50;;;;;;5085267;28;42869;-79
2022/01/31 01:10:46;;;;;;;;;;;19.40;46.50;;;;;;5085463;27;42949;-78
2022/01/31 01:13:12;;;;;;;;;;;19.40;46.60;;;;;;5084665;27;43368;-79
2022/01/31 01:15:37;;;;;;;;;;;19.40;46.40;;;;;;5067442;28;43439;-80
2022/01/31 01:18:03;;;;;;;;;;;19.30;46.50;;;;;;5064799;27;42965;-79
2022/01/31 01:20:29;;;;;;;;;;;19.30;46.40;;;;;;5064569;28;43039;-79
2022/01/31 01:22:55;;;;;;;;;;;19.30;46.50;;;;;;5064492;28;42906;-79
2022/01/31 01:25:20;;;;;;;;;;;19.30;46.60;;;;;;5064369;28;42954;-79
2022/01/31 01:27:49;;;;;;;;;;;19.30;46.40;;;;;;5064764;28;43140;-78
2022/01/31 01:30:15;;;;;;;;;;;19.30;46.40;;;;;;5065191;28;42952;-78
2022/01/31 01:33:01;;;;;;;;;;;19.30;46.50;;;;;;5079570;28;44215;-79
2022/01/31 01:35:31;;;;;;;;;;;19.30;46.50;;;;;;5063352;28;42924;-79
2022/01/31 01:37:59;;;;;;;;;;;19.30;46.60;;;;;;5064193;28;42898;-79
2022/01/31 01:40:25;;;;;;;;;;;19.30;46.30;;;;;;5063655;28;42948;-79
2022/01/31 01:42:50;;;;;;;;;;;19.30;46.40;;;;;;5063998;28;43779;-79
2022/01/31 01:45:16;;;;;;;;;;;19.30;46.40;;;;;;5063560;28;43033;-72
2022/01/31 01:47:41;;;;;;;;;;;19.30;46.50;;;;;;5064026;28;43021;-79
2022/01/31 01:50:07;;;;;;;;;;;19.30;46.40;;;;;;5063270;28;43155;-79
2022/01/31 01:52:33;;;;;;;;;;;19.30;46.40;;;;;;5064402;28;43687;-78
2022/01/31 01:54:58;;;;;;;;;;;19.30;46.50;;;;;;5063152;28;43608;-79
2022/01/31 01:57:24;;;;;;;;;;;19.20;46.40;;;;;;5064333;28;44018;-79
2022/01/31 01:59:55;;;;;;;;;;;19.20;46.40;;;;;;5064360;28;42956;-76
2022/01/31 02:02:20;;;;;;;;;;;19.30;46.40;;;;;;5064227;28;43487;-77
2022/01/31 02:04:46;;;;;;;;;;;19.20;46.40;;;;;;5064623;28;42972;-75
2022/01/31 02:07:12;;;;;;;;;;;19.20;46.40;;;;;;5060609;28;43620;-79
2022/01/31 02:09:44;;;;;;;;;;;19.30;46.40;;;;;;5063737;28;42937;-78
2022/01/31 02:12:10;;;;;;;;;;;19.20;46.40;;;;;;5063174;28;42938;-75
2022/01/31 02:14:36;;;;;;;;;;;19.20;46.40;;;;;;5064331;28;43020;-79
2022/01/31 02:17:01;;;;;;;;;;;19.20;46.40;;;;;;5063549;28;43672;-80
2022/01/31 02:19:27;;;;;;;;;;;19.20;46.60;;;;;;5063817;28;43040;-78
2022/01/31 02:21:53;;;;;;;;;;;19.20;46.40;;;;;;5062778;28;43679;-78
2022/01/31 02:24:19;;;;;;;;;;;21.20;47.50;;;;;;5063385;28;42899;-79
2022/01/31 02:26:45;;;;;;;;;;;19.20;46.40;;;;;;5062107;28;43604;-77
2022/01/31 02:29:11;;;;;;;;;;;19.30;46.50;;;;;;5063557;28;42980;-76
2022/01/31 02:31:37;;;;;;;;;;;19.30;46.50;;;;;;5062920;28;43544;-79
2022/01/31 02:34:02;;;;;;;;;;;19.20;46.30;;;;;;5063663;28;42985;-76
2022/01/31 02:36:28;;;;;;;;;;;19.30;46.30;;;;;;5063318;28;43335;-78
2022/01/31 02:38:53;;;;;;;;;;;19.20;46.40;;;;;;5062648;28;43022;-79
2022/01/31 02:41:19;;;;;;;;;;;19.30;46.40;;;;;;5063185;28;43940;-77
2022/01/31 02:43:49;;;;;;;;;;;19.20;46.40;;;;;;5062620;28;42960;-79
2022/01/31 02:46:14;;;;;;;;;;;19.20;46.50;;;;;;5063902;28;43571;-79
2022/01/31 02:48:40;;;;;;;;;;;19.20;46.40;;;;;;5066656;28;42953;-75
2022/01/31 02:51:10;;;;;;;;;;;19.20;46.70;;;;;;5066383;28;43582;-78
2022/01/31 02:53:41;;;;;;;;;;;19.20;46.40;;;;;;5066994;28;42916;-77
2022/01/31 02:56:07;;;;;;;;;;;19.20;46.50;;;;;;5066535;28;43508;-79
2022/01/31 02:58:32;;;;;;;;;;;19.20;46.50;;;;;;5067357;28;43208;-77
2022/01/31 03:00:58;;;;;;;;;;;19.20;46.40;;;;;;5066453;28;43465;-78
2022/01/31 03:03:23;;;;;;;;;;;19.20;46.40;;;;;;5067021;28;43006;-78
2022/01/31 03:05:49;;;;;;;;;;;19.20;46.40;;;;;;5065881;28;42974;-78
2022/01/31 03:08:15;;;;;;;;;;;19.20;46.50;;;;;;5066477;28;42739;-77
2022/01/31 03:10:40;;;;;;;;;;;19.20;46.40;;;;;;5066200;28;43600;-79
2022/01/31 03:13:06;;;;;;;;;;;19.20;46.40;;;;;;5066270;28;42918;-79
2022/01/31 03:15:32;;;;;;;;;;;19.20;46.30;;;;;;5065450;28;42980;-81
2022/01/31 03:17:58;;;;;;;;;;;19.20;46.40;;;;;;5066696;28;42975;-78
2022/01/31 03:20:24;;;;;;;;;;;19.20;46.50;;;;;;5066456;27;43521;-80
2022/01/31 03:22:50;;;;;;;;;;;19.20;46.50;;;;;;5066769;28;42972;-79
2022/01/31 03:25:16;;;;;;;;;;;19.20;46.50;;;;;;5065403;28;42968;-80
2022/01/31 03:27:42;;;;;;;;;;;19.20;46.40;;;;;;5065761;28;42953;-75
2022/01/31 03:30:08;;;;;;;;;;;19.20;46.60;;;;;;5065807;28;43769;-79
2022/01/31 03:32:34;;;;;;;;;;;19.20;46.40;;;;;;5065932;28;43007;-75
2022/01/31 03:35:01;;;;;;;;;;;19.20;46.30;;;;;;5065807;28;44266;-76
2022/01/31 03:37:27;;;;;;;;;;;19.20;46.30;;;;;;5065067;28;42874;-79
2022/01/31 03:39:52;;;;;;;;;;;19.10;46.30;;;;;;5065951;28;42973;-78
2022/01/31 03:42:18;;;;;;;;;;;19.20;46.40;;;;;;5065607;28;43126;-79
2022/01/31 03:44:47;;;;;;;;;;;19.10;46.50;;;;;;5065846;28;43125;-80
2022/01/31 03:47:14;;;;;;;;;;;19.10;46.40;;;;;;5065202;27;43037;-78
2022/01/31 03:49:40;;;;;;;;;;;19.10;46.30;;;;;;5066001;28;43677;-79
2022/01/31 03:52:05;;;;;;;;;;;19.10;46.30;;;;;;5066288;28;43119;-78
2022/01/31 03:54:31;;;;;;;;;;;19.20;46.30;;;;;;5065717;28;42996;-80
2022/01/31 03:56:56;;;;;;;;;;;19.10;46.40;;;;;;5065624;28;42936;-76
2022/01/31 03:59:22;;;;;;;;;;;19.10;46.20;;;;;;5064823;28;43563;-80
2022/01/31 04:01:47;;;;;;;;;;;19.10;46.40;;;;;;5065763;28;43091;-80
2022/01/31 04:04:13;;;;;;;;;;;19.10;46.30;;;;;;5065394;28;42928;-77
2022/01/31 04:06:39;;;;;;;;;;;19.10;46.20;;;;;;5065709;28;42895;-79
2022/01/31 04:09:05;;;;;;;;;;;19.10;46.30;;;;;;5065145;28;44691;-78
2022/01/31 04:11:30;;;;;;;;;;;19.10;46.40;;;;;;5065056;28;42968;-80
2022/01/31 04:13:56;;;;;;;;;;;19.10;46.30;;;;;;5064862;28;43667;-79
2022/01/31 04:16:21;;;;;;;;;;;19.10;46.40;;;;;;5065819;28;42817;-75
2022/01/31 04:18:47;;;;;;;;;;;19.10;46.40;;;;;;5071552;28;43540;-79
2022/01/31 04:21:13;;;;;;;;;;;19.10;46.30;;;;;;5085347;28;42986;-79
2022/01/31 04:23:39;;;;;;;;;;;19.10;46.20;;;;;;5086120;28;43358;-76
2022/01/31 04:26:12;;;;;;;;;;;19.10;46.20;;;;;;5085452;28;42870;-78
2022/01/31 04:31:36;;;;;;;;;;;19.10;46.20;;;;;;5084726;27;42876;-76
2022/01/31 04:34:00;;;;;;;;;;;19.10;46.20;;;;;;5085108;27;43293;-75
2022/01/31 04:36:26;;;;;;;;;;;19.10;46.10;;;;;;5084389;27;42955;-76
2022/01/31 04:38:51;;;;;;;;;;;19.10;46.30;;;;;;5085518;28;43685;-79
2022/01/31 04:41:17;;;;;;;;;;;19.10;46.20;;;;;;5084708;27;43026;-76
2022/01/31 04:43:45;;;;;;;;;;;19.10;46.10;;;;;;5084556;27;43550;-78
2022/01/31 04:46:11;;;;;;;;;;;19.10;46.10;;;;;;5085770;27;42975;-78
2022/01/31 04:48:37;;;;;;;;;;;19.10;46.40;;;;;;5085484;27;42975;-78
2022/01/31 04:51:02;;;;;;;;;;;19.10;46.20;;;;;;5084562;27;42852;-76
2022/01/31 04:53:28;;;;;;;;;;;19.10;46.20;;;;;;5085479;28;43796;-77
2022/01/31 04:55:54;;;;;;;;;;;19.00;46.10;;;;;;5084571;27;42986;-77
2022/01/31 04:58:22;;;;;;;;;;;19.10;46.30;;;;;;5085142;28;43546;-75
2022/01/31 05:00:47;;;;;;;;;;;19.10;46.20;;;;;;5084976;27;43004;-79
2022/01/31 05:03:16;;;;;;;;;;;19.10;46.20;;;;;;5081760;27;44342;-79
2022/01/31 05:05:42;;;;;;;;;;;19.00;46.10;;;;;;5084253;27;43153;-80
2022/01/31 05:08:08;;;;;;;;;;;19.00;46.10;;;;;;5084025;27;43230;-79
2022/01/31 05:10:34;;;;;;;;;;;19.00;46.30;;;;;;5083761;27;42950;-76
2022/01/31 05:13:00;;;;;;;;;;;19.00;46.00;;;;;;5084755;28;42920;-79
2022/01/31 05:15:25;;;;;;;;;;;19.00;46.20;;;;;;5085013;27;43070;-78
2022/01/31 05:17:51;;;;;;;;;;;19.00;46.20;;;;;;5083875;28;43486;-78
2022/01/31 05:20:16;;;;;;;;;;;19.00;46.20;;;;;;5083719;27;42995;-78
2022/01/31 05:22:42;;;;;;;;;;;19.00;46.20;;;;;;5081992;27;42961;-79
2022/01/31 05:25:08;;;;;;;;;;;19.00;46.20;;;;;;5083941;27;43015;-77
2022/01/31 05:27:33;;;;;;;;;;;19.00;46.00;;;;;;5084318;27;43486;-78
2022/01/31 05:29:59;;;;;;;;;;;19.00;46.10;;;;;;5080351;27;42876;-80
2022/01/31 05:32:24;;;;;;;;;;;19.00;46.30;;;;;;5083018;27;43228;-79
2022/01/31 05:34:50;;;;;;;;;;;19.00;45.90;;;;;;5083179;27;43038;-79
2022/01/31 05:37:16;;;;;;;;;;;19.00;45.30;;;;;;5078676;28;43042;-76
2022/01/31 05:39:43;;;;;;;;;;;18.90;45.40;;;;;;5080756;27;43320;-79
2022/01/31 05:42:09;;;;;;;;;;;18.90;45.30;;;;;;5081575;27;43815;-76
2022/01/31 05:44:34;;;;;;;;;;;19.00;45.30;;;;;;5078411;27;43075;-76
2022/01/31 05:47:00;;;;;;;;;;;18.90;45.20;;;;;;5083686;27;42911;-76
2022/01/31 05:49:26;;;;;;;;;;;19.00;45.30;;;;;;5085292;27;42945;-76
2022/01/31 05:51:57;;;;;;;;;;;19.00;45.40;;;;;;5083595;28;43028;-77
2022/01/31 05:54:23;;;;;;;;;;;18.50;35.90;;;;;;5081925;27;43057;-77
2022/01/31 05:56:49;;;;;;;;;;;17.80;33.90;;;;;;5080968;27;44531;-76
2022/01/31 05:59:15;;;;;;;;;;;17.30;33.40;;;;;;5078990;27;43003;-77
2022/01/31 06:01:41;;;;;;;;;;;17.10;33.10;;;;;;5079975;28;43625;-76
2022/01/31 06:04:07;;;;;;;;;;;16.80;34.60;;;;;;5075086;28;43008;-76
2022/01/31 06:06:32;;;;;;;;;;;16.40;34.30;;;;;;5071847;28;42865;-76
2022/01/31 06:08:58;;;;;;;;;;;16.40;34.70;;;;;;5064747;28;43015;-76
2022/01/31 06:11:25;;;;;;;;;;;16.20;34.40;;;;;;5072918;28;42958;-77
2022/01/31 06:13:51;;;;;;;;;;;16.00;34.60;;;;;;5063033;28;42912;-75
2022/01/31 06:16:18;;;;;;;;;;;16.00;34.60;;;;;;5077198;28;43547;-76
2022/01/31 06:18:44;;;;;;;;;;;15.80;34.30;;;;;;5084322;27;42913;-76
2022/01/31 06:21:11;;;;;;;;;;;15.70;44.40;;;;;;5096462;27;43507;-74
2022/01/31 06:23:37;;;;;;;;;;;15.50;33.90;;;;;;5092414;27;42939;-76
2022/01/31 06:26:02;;;;;;;;;;;15.40;34.30;;;;;;5083100;28;43393;-77
2022/01/31 06:28:28;;;;;;;;;;;15.40;34.50;;;;;;5084144;28;42925;-76
2022/01/31 06:30:53;;;;;;;;;;;15.20;34.30;;;;;;5084014;27;43980;-76
2022/01/31 06:33:19;;;;;;;;;;;15.10;34.50;;;;;;5084645;27;43089;-76
2022/01/31 06:35:44;;;;;;;;;;;15.10;34.90;;;;;;5084472;27;43810;-77
2022/01/31 06:38:10;;;;;;;;;;;15.10;35.20;;;;;;5084821;27;43040;-76
2022/01/31 06:40:36;;;;;;;;;;;15.00;34.80;;;;;;5083582;27;42829;-77
2022/01/31 06:43:01;;;;;;;;;;;15.00;34.50;;;;;;5085121;27;43333;-77
2022/01/31 06:45:27;;;;;;;;;;;14.80;34.80;;;;;;5084909;28;42870;-76
2022/01/31 06:47:53;;;;;;;;;;;;;;;;;;5084339;28;42998;-76
2022/01/31 06:50:19;;;;;;;;;;;14.80;42.10;;;;;;5084593;27;43669;-74
2022/01/31 06:52:44;;;;;;;;;;;15.10;42.50;;;;;;5073805;27;42925;-73
2022/01/31 06:55:19;;;;;;;;;;;15.90;42.60;;;;;;5061459;28;43199;-74
2022/01/31 06:57:44;;;;;;;;;;;16.10;42.60;;;;;;5062619;28;43009;-74
2022/01/31 07:00:10;;;;;;;;;;;16.70;42.70;;;;;;5064709;28;43447;-74
2022/01/31 07:02:36;;;;;;;;;;;17.00;42.70;;;;;;5065150;28;42868;-74
2022/01/31 07:05:01;;;;;;;;;;;16.90;42.80;;;;;;5064076;28;42871;-73
2022/01/31 07:07:27;;;;;;;;;;;17.10;42.50;;;;;;5064313;28;42956;-74
2022/01/31 07:09:53;;;;;;;;;;;17.20;42.50;;;;;;5064274;28;43544;-73
2022/01/31 07:12:22;;;;;;;;;;;17.20;42.60;;;;;;5064867;28;42993;-74
2022/01/31 07:14:47;;;;;;;;;;;17.40;42.60;;;;;;5064388;28;43693;-75
2022/01/31 07:17:13;;;;;;;;;;;17.30;42.70;;;;;;5064179;28;42909;-74
2022/01/31 07:19:40;;;;;;;;;;;17.50;42.70;;;;;;5064016;28;43653;-74
2022/01/31 07:22:10;;;;;;;;;;;17.50;43.00;;;;;;5064346;28;43113;-74
2022/01/31 07:27:01;;;;;;;;;;;17.60;43.10;;;;;;5064252;28;42895;-74
2022/01/31 07:29:26;;;;;;;;;;;17.50;43.20;;;;;;5064089;28;42790;-75
2022/01/31 07:31:52;;;;;;;;;;;17.60;43.40;;;;;;5065090;28;43012;-72
2022/01/31 07:34:18;;;;;;;;;;;17.50;43.50;;;;;;5065975;28;43720;-74
2022/01/31 07:36:44;;;;;;;;;;;17.60;43.40;;;;;;5068686;28;42869;-76
2022/01/31 07:39:10;;;;;;;;;;;17.60;43.50;;;;;;5067378;28;43550;-75
2022/01/31 07:41:36;;;;;;;;;;;17.80;43.90;;;;;;5067913;28;42792;-74
2022/01/31 07:44:02;;;;;;;;;;;17.50;43.60;;;;;;5066877;28;43303;-73
2022/01/31 07:46:27;;;;;;;;;;;17.60;43.60;;;;;;5065949;28;43042;-75
2022/01/31 07:48:54;;;;;;;;;;;17.70;43.80;;;;;;5067910;28;43547;-74
2022/01/31 07:51:20;;;;;;;;;;;17.70;44.50;;;;;;5067717;28;42803;-74
2022/01/31 07:53:46;;;;;;;;;;;17.70;44.00;;;;;;5067892;28;42944;-77
2022/01/31 07:56:11;;;;;;;;;;;17.60;44.00;;;;;;5067411;28;42934;-76
2022/01/31 07:58:39;;;;;;;;;;;17.70;44.30;;;;;;5067351;28;43047;-73
2022/01/31 08:01:05;;;;;;;;;;;17.70;44.30;;;;;;5067733;28;42855;-74
2022/01/31 08:03:31;;;;;;;;;;;17.60;44.30;;;;;;5066939;28;43843;-76
2022/01/31 08:05:57;;;;;;;;;;;17.60;44.30;;;;;;5066678;28;42882;-74
2022/01/31 08:08:24;;;;;;;;;;;17.90;44.60;;;;;;5067278;28;42937;-74
2022/01/31 08:10:49;;;;;;;;;;;17.70;44.50;;;;;;5066995;28;42983;-75
2022/01/31 08:13:15;;;;;;;;;;;17.70;44.40;;;;;;5066946;28;43514;-74
2022/01/31 08:15:59;;;;;;;;;;;17.70;44.40;;;;;;5067507;28;42964;-73
2022/01/31 08:18:24;;;;;;;;;;;17.90;43.60;;;;;;5066902;28;43453;-74
2022/01/31 08:20:50;;;;;;;;;;;17.70;44.40;;;;;;5066627;28;42845;-74
2022/01/31 08:23:15;;;;;;;;;;;17.90;44.70;;;;;;5066579;28;43030;-73
2022/01/31 08:25:47;;;;;;;;;;;17.90;44.50;;;;;;5066853;28;43213;-76
2022/01/31 08:28:12;;;;;;;;;;;17.80;44.80;;;;;;5066778;28;42922;-74
2022/01/31 08:30:48;;;;;;;;;;;18.00;44.90;;;;;;5065328;28;43067;-74
2022/01/31 08:33:26;;;;;;;;;;;17.80;44.80;;;;;;5067026;28;43895;-74
2022/01/31 08:35:52;;;;;;;;;;;17.90;45.00;;;;;;5066684;28;42950;-75
2022/01/31 08:38:18;;;;;;;;;;;17.80;44.80;;;;;;5067593;28;42969;-73
2022/01/31 08:40:44;;;;;;;;;;;17.90;44.90;;;;;;5066528;28;42938;-72
2022/01/31 08:43:09;;;;;;;;;;;17.80;44.90;;;;;;5066711;28;42937;-72
2022/01/31 08:45:35;;;;;;;;;;;17.70;44.80;;;;;;5065706;28;42883;-73
2022/01/31 08:48:01;;;;;;;;;;;17.80;45.00;;;;;;5066620;28;42948;-73
2022/01/31 08:50:26;;;;;;;;;;;17.90;45.00;;;;;;5066610;28;42881;-74
2022/01/31 08:52:52;;;;;;;;;;;17.80;45.00;;;;;;5066594;28;43244;-75
2022/01/31 08:55:20;;;;;;;;;;;18.00;45.00;;;;;;5066505;28;42894;-72
2022/01/31 08:57:47;;;;;;;;;;;17.80;45.10;;;;;;5067536;28;42863;-74
2022/01/31 09:00:13;;;;;;;;;;;17.90;45.00;;;;;;5068854;28;42826;-72
2022/01/31 09:02:48;;;;;;;;;;;17.80;44.80;;;;;;5066269;28;43616;-72
2022/01/31 09:05:13;;;;;;;;;;;17.90;45.00;;;;;;5066282;28;43025;-75
2022/01/31 09:07:39;;;;;;;;;;;17.80;44.90;;;;;;5066130;28;43385;-74
2022/01/31 09:10:04;;;;;;;;;;;17.70;45.00;;;;;;5066034;28;42921;-73
2022/01/31 09:12:33;;;;;;;;;;;17.80;44.70;;;;;;5066011;28;43490;-74
2022/01/31 09:14:58;;;;;;;;;;;17.80;45.30;;;;;;5066352;28;42927;-72
2022/01/31 09:17:24;;;;;;;;;;;17.80;45.10;;;;;;5066168;28;42903;-74
2022/01/31 09:19:49;;;;;;;;;;;17.80;45.20;;;;;;5066474;28;43092;-74
2022/01/31 09:22:15;;;;;;;;;;;17.90;45.20;;;;;;5066441;28;43712;-74
2022/01/31 09:24:41;;;;;;;;;;;17.90;45.20;;;;;;5065959;28;43003;-74
2022/01/31 09:27:07;;;;;;;;;;;17.90;45.30;;;;;;5064271;28;45162;-74
2022/01/31 09:29:33;;;;;;;;;;;18.00;45.30;;;;;;5065416;28;43067;-74
2022/01/31 09:32:02;;;;;;;;;;;17.80;45.30;;;;;;5065395;28;43553;-74
2022/01/31 09:34:30;;;;;;;;;;;18.00;45.30;;;;;;5065402;28;42975;-74
2022/01/31 09:36:56;;;;;;;;;;;17.80;45.10;;;;;;5065332;28;43293;-73
2022/01/31 09:39:21;;;;;;;;;;;17.80;45.20;;;;;;5065785;28;43018;-73
2022/01/31 09:41:53;;;;;;;;;;;17.90;45.20;;;;;;5065971;28;42913;-74
2022/01/31 09:47:06;;;;;;;;;;;17.80;44.40;;;;;;5065011;28;42970;-74
2022/01/31 09:49:33;;;;;;;;;;;17.90;45.30;;;;;;5065823;28;42985;-74
2022/01/31 09:51:58;;;;;;;;;;;18.00;45.40;;;;;;5065440;28;42952;-74
2022/01/31 09:54:25;;;;;;;;;;;18.00;45.30;;;;;;5065302;28;42986;-75
2022/01/31 09:56:53;;;;;;;;;;;17.80;45.40;;;;;;5064173;28;43709;-74
2022/01/31 09:59:18;;;;;;;;;;;17.80;45.50;;;;;;5065814;28;42861;-76
2022/01/31 10:01:47;;;;;;;;;;;18.20;45.50;;;;;;5065342;28;43650;-75
2022/01/31 10:04:16;;;;;;;;;;;17.90;45.40;;;;;;5065251;28;43092;-74
2022/01/31 10:06:43;;;;;;;;;;;17.80;45.50;;;;;;5064637;28;43576;-74
2022/01/31 10:09:11;;;;;;;;;;;17.80;45.40;;;;;;5065291;28;42960;-75
2022/01/31 10:16:55;;;;;;;;;;;17.90;45.50;;;;;;5064847;28;43229;-74
2022/01/31 10:19:20;;;;;;;;;;;17.80;45.30;;;;;;5064916;28;43019;-74
2022/01/31 10:21:58;;;;;;;;;;;17.90;45.70;;;;;;5065322;28;42974;-74
2022/01/31 10:24:24;;;;;;;;;;;17.90;44.30;;;;;;5065309;28;42989;-75
2022/01/31 10:26:50;;;;;;;;;;;18.00;45.50;;;;;;5064764;28;43693;-75
2022/01/31 10:29:16;;;;;;;;;;;17.80;45.40;;;;;;5064895;28;42825;-76
2022/01/31 10:32:01;;;;;;;;;;;17.90;45.50;;;;;;5063039;28;43712;-74
2022/01/31 10:34:28;;;;;;;;;;;18.00;44.30;;;;;;5063232;28;42988;-74
2022/01/31 10:36:54;;;;;;;;;;;17.90;45.50;;;;;;5064788;28;43591;-75
2022/01/31 10:53:05;;;;;;;;;;;17.90;45.40;;;;;;5064508;28;42965;-76
2022/01/31 10:55:31;;;;;;;;;;;17.90;45.40;;;;;;5064470;28;42851;-76
2022/01/31 10:58:04;;;;;;;;;;;18.20;45.60;;;;;;5064418;28;43626;-74
2022/01/31 11:00:37;;;;;;;;;;;18.00;44.20;;;;;;5064620;28;43068;-76
2022/01/31 11:03:22;;;;;;;;;;;18.00;44.30;;;;;;5064358;28;42902;-76
2022/01/31 11:05:50;;;;;;;;;;;17.90;44.40;;;;;;5064845;28;42909;-76
2022/01/31 11:08:16;;;;;;;;;;;17.90;44.30;;;;;;5066476;28;43701;-74
2022/01/31 11:10:42;;;;;;;;;;;17.70;45.40;;;;;;5067940;28;43009;-77
2022/01/31 11:13:08;;;;;;;;;;;17.90;45.40;;;;;;5067841;28;42748;-74
2022/01/31 11:15:34;;;;;;;;;;;18.00;45.60;;;;;;5068193;28;42905;-74
2022/01/31 11:18:01;;;;;;;;;;;18.00;45.50;;;;;;5068082;28;42874;-76
2022/01/31 11:20:26;;;;;;;;;;;18.00;45.60;;;;;;5068506;28;42819;-74
2022/01/31 11:22:57;;;;;;;;;;;17.90;45.50;;;;;;5068110;28;42742;-75
2022/01/31 11:25:26;;;;;;;;;;;17.90;45.60;;;;;;5067723;28;43085;-74
2022/01/31 11:27:59;;;;;;;;;;;17.90;45.50;;;;;;5067754;28;42893;-75
2022/01/31 11:30:25;;;;;;;;;;;18.10;44.40;;;;;;5068272;28;42936;-75
2022/01/31 11:32:51;;;;;;;;;;;18.00;45.60;;;;;;5067405;28;42984;-75
2022/01/31 11:35:17;;;;;;;;;;;17.90;45.60;;;;;;5067953;28;42834;-74
2022/01/31 11:37:42;;;;;;;;;;;18.00;45.50;;;;;;5067371;28;42879;-76
2022/01/31 11:40:10;;;;;;;;;;;18.00;45.60;;;;;;5067540;28;42867;-75
2022/01/31 11:42:35;;;;;;;;;;;17.90;45.20;;;;;;5067771;28;42909;-75
2022/01/31 11:45:16;;;;;;;;;;;18.00;45.60;;;;;;5067844;28;42922;-74
2022/01/31 11:47:45;;;;;;;;;;;18.00;44.40;;;;;;5067264;28;42852;-74
2022/01/31 11:50:14;;;;;;;;;;;18.20;45.80;;;;;;5067590;28;42881;-75
2022/01/31 11:52:47;;;;;;;;;;;18.10;45.80;;;;;;5067339;28;43009;-74
2022/01/31 11:55:14;;;;;;;;;;;18.10;44.40;;;;;;5066738;28;42977;-74
2022/01/31 11:57:39;;;;;;;;;;;18.10;45.60;;;;;;5066585;28;43484;-76
2022/01/31 12:00:07;;;;;;;;;;;18.00;45.50;;;;;;5066876;28;42901;-75
2022/01/31 12:02:39;;;;;;;;;;;18.10;45.70;;;;;;5066702;28;42947;-76
2022/01/31 12:05:10;;;;;;;;;;;18.00;45.60;;;;;;5067247;28;42825;-76
2022/01/31 12:07:42;;;;;;;;;;;18.00;44.40;;;;;;5066927;28;42843;-75
2022/01/31 12:10:21;;;;;;;;;;;18.00;44.30;;;;;;5066672;28;42871;-76
2022/01/31 12:23:40;;;;;;;;;;;17.50;42.50;;;;;;5077173;28;43258;-76
2022/01/31 12:26:24;;;;;;;;;;;17.50;43.60;;;;;;5080393;28;42931;-78
2022/01/31 12:28:53;;;;;;;;;;;17.10;42.00;;;;;;5086334;27;43025;-78
2022/01/31 12:31:27;;;;;;;;;;;17.10;42.10;;;;;;5074930;28;43089;-76
2022/01/31 12:33:52;;;;;;;;;;;17.10;42.30;;;;;;5078893;27;43846;-75
2022/01/31 12:36:36;;;;;;;;;;;17.00;43.50;;;;;;5076211;28;43072;-75
2022/01/31 12:39:24;;;;;;;;;;;17.20;42.20;;;;;;5076807;28;43226;-75
2022/01/31 12:41:59;;;;;;;;;;;17.00;42.20;;;;;;5071244;28;42885;-77
2022/01/31 12:44:36;;;;;;;;;;;16.90;43.40;;;;;;5082702;28;42839;-78
2022/01/31 12:47:11;;;;;;;;;;;16.90;42.20;;;;;;5086168;27;42855;-75
2022/01/31 12:49:36;;;;;;;;;;;16.80;42.20;;;;;;5085871;28;43832;-78
2022/01/31 12:52:05;;;;;;;;;;;16.90;43.80;;;;;;5082597;28;43052;-76
2022/01/31 12:54:32;;;;;;;;;;;16.90;43.40;;;;;;5066742;27;44166;-77
2022/01/31 12:57:03;;;;;;;;;;;16.80;43.60;;;;;;5077560;27;43479;-75
2022/01/31 12:59:29;;;;;;;;;;;16.90;42.40;;;;;;5079716;28;43020;-75
2022/01/31 13:01:55;;;;;;;;;;;16.80;43.70;;;;;;5085284;28;42878;-75
2022/01/31 13:04:22;;;;;;;;;;;17.00;43.70;;;;;;5078991;27;43066;-76
2022/01/31 13:06:51;;;;;;;;;;;16.70;43.70;;;;;;5075942;28;42961;-77
2022/01/31 13:09:19;;;;;;;;;;;16.80;42.50;;;;;;5074940;28;44031;-76
2022/01/31 13:11:48;;;;;;;;;;;16.90;43.30;;;;;;5076613;28;43976;-77
2022/01/31 13:14:16;;;;;;;;;;;16.70;43.10;;;;;;5076567;28;43673;-77
2022/01/31 13:16:45;;;;;;;;;;;16.70;43.80;;;;;;5073706;28;43498;-77
2022/01/31 13:19:15;;;;;;;;;;;16.50;44.00;;;;;;5074138;28;43532;-76
2022/01/31 13:21:41;;;;;;;;;;;17.60;42.90;;;;;;5080264;28;42968;-76
2022/01/31 13:24:07;;;;;;;;;;;16.70;43.80;;;;;;5081311;27;43481;-75
2022/01/31 13:26:48;;;;;;;;;;;16.70;43.50;;;;;;5083860;27;42993;-76
2022/01/31 13:29:46;;;;;;;;;;;16.80;42.60;;;;;;5084669;27;42959;-77
2022/01/31 13:32:33;;;;;;;;;;;16.70;42.70;;;;;;5070913;28;43067;-76
2022/01/31 13:34:58;;;;;;;;;;;16.60;43.90;;;;;;5080632;28;43107;-78
2022/01/31 13:37:27;;;;;;;;;;;16.70;44.00;;;;;;5074330;27;42901;-77
2022/01/31 13:39:56;;;;;;;;;;;16.70;42.80;;;;;;5073988;28;43094;-77
2022/01/31 13:42:24;;;;;;;;;;;16.40;43.60;;;;;;5076411;28;42968;-75
2022/01/31 13:44:52;;;;;;;;;;;16.70;43.80;;;;;;5076402;27;44397;-77
2022/01/31 13:47:28;;;;;;;;;;;16.50;43.70;;;;;;5084090;28;42873;-74
2022/01/31 13:49:54;;;;;;;;;;;16.50;43.60;;;;;;5076860;27;43667;-77
2022/01/31 13:52:20;;;;;;;;;;;16.50;43.70;;;;;;5073939;28;43115;-77
2022/01/31 13:54:46;;;;;;;;;;;16.50;43.70;;;;;;5074524;27;42920;-76
2022/01/31 13:57:12;;;;;;;;;;;16.60;43.80;;;;;;5074087;28;42964;-76
2022/01/31 13:59:37;;;;;;;;;;;16.60;43.80;;;;;;5073663;27;43561;-77
2022/01/31 14:02:07;;;;;;;;;;;16.30;43.80;;;;;;5075652;28;42936;-75
2022/01/31 14:04:33;;;;;;;;;;;16.60;42.70;;;;;;5075308;28;43007;-76
2022/01/31 14:06:58;;;;;;;;;;;16.40;43.80;;;;;;5074471;28;42872;-77
2022/01/31 14:09:29;;;;;;;;;;;16.40;43.70;;;;;;5072727;28;43337;-76
2022/01/31 14:11:55;;;;;;;;;;;16.50;43.80;;;;;;5074746;27;43015;-77
2022/01/31 14:14:21;;;;;;;;;;;16.60;43.70;;;;;;5072343;28;42967;-76
2022/01/31 14:16:48;;;;;;;;;;;16.30;43.10;;;;;;5063971;28;43095;-75
2022/01/31 14:19:14;;;;;;;;;;;16.40;43.30;;;;;;5073206;28;43952;-77
2022/01/31 14:21:41;;;;;;;;;;;16.30;43.50;;;;;;5082404;28;42986;-77
2022/01/31 14:24:07;;;;;;;;;;;16.30;43.40;;;;;;5084246;27;42962;-77
2022/01/31 14:26:34;;;;;;;;;;;16.40;43.50;;;;;;5080916;27;42757;-77
2022/01/31 14:29:01;;;;;;;;;;;16.30;43.50;;;;;;5073192;27;43447;-77
2022/01/31 14:31:33;;;;;;;;;;;16.30;43.40;;;;;;5076586;27;43000;-77
2022/01/31 14:34:04;;;;;;;;;;;16.40;42.20;;;;;;5075633;28;43037;-76
2022/01/31 14:36:35;;;;;;;;;;;16.50;42.20;;;;;;5074649;28;42967;-76
2022/01/31 14:39:42;;;;;;;;;;;16.50;43.60;;;;;;5073647;28;42975;-76
2022/01/31 14:42:24;;;;;;;;;;;16.30;43.60;;;;;;5075329;27;42958;-78
2022/01/31 14:47:40;;;;;;;;;;;16.20;43.90;;;;;;5079328;28;42992;-79
2022/01/31 14:50:07;;;;;;;;;;;16.30;44.30;;;;;;5079264;28;42838;-79
2022/01/31 14:52:33;;;;;;;;;;;16.30;44.40;;;;;;5077834;28;42902;-80
2022/01/31 14:55:00;;;;;;;;;;;16.20;43.70;;;;;;5075957;27;44594;-76
2022/01/31 14:57:25;;;;;;;;;;;16.20;44.20;;;;;;5079046;28;42957;-81
2022/01/31 14:59:51;;;;;;;;;;;16.20;44.20;;;;;;5077156;28;43032;-80
2022/01/31 15:02:16;;;;;;;;;;;16.20;44.10;;;;;;5077107;27;42968;-81